createdAt,value
2023-04-23T00:04:51.750Z,11.32
2023-04-23T00:09:44.880Z,11.93
2023-04-23T00:14:39.944Z,11.67
2023-04-23T00:19:33.365Z,11.85
2023-04-23T00:24:26.604Z,11.83
2023-04-23T00:29:19.792Z,11.54
2023-04-23T00:34:14.344Z,11.67
2023-04-23T00:39:07.586Z,11.28
2023-04-23T00:44:01.865Z,11.53
2023-04-23T00:48:56.123Z,10.95
2023-04-23T00:53:50.614Z,11.28
2023-04-23T00:58:43.995Z,11.36
2023-04-23T01:03:38.761Z,11.27
2023-04-23T01:08:33.709Z,11.01
2023-04-23T01:13:29.910Z,11.02
2023-04-23T01:18:24.432Z,10.86
2023-04-23T01:23:19.097Z,10.72
2023-04-23T01:28:13.154Z,10.59
2023-04-23T01:33:07.426Z,10.54
2023-04-23T01:38:03.963Z,10.37
2023-04-23T01:42:59.425Z,9.89
2023-04-23T01:47:52.964Z,8.86
2023-04-23T01:52:46.522Z,9.59
2023-04-23T01:57:39.781Z,9.85
2023-04-23T02:02:34.470Z,9.39
2023-04-23T02:07:27.740Z,9.81
2023-04-23T02:12:21.111Z,9.33
2023-04-23T02:17:14.392Z,9.57
2023-04-23T02:22:09.512Z,9.33
2023-04-23T02:27:03.610Z,9.46
2023-04-23T02:31:56.925Z,9.51
2023-04-23T02:36:50.213Z,9.63
2023-04-23T02:41:44.857Z,9.62
2023-04-23T02:46:38.556Z,9.63
2023-04-23T02:51:32.247Z,9.67
2023-04-23T02:56:25.948Z,9.49
2023-04-23T03:01:21.383Z,9.66
2023-04-23T03:06:14.787Z,9.82
2023-04-23T03:11:07.974Z,9.99
2023-04-23T03:16:01.274Z,9.89
2023-04-23T03:20:56.521Z,10.04
2023-04-23T03:25:50.028Z,10.06
2023-04-23T03:30:43.452Z,9.30
2023-04-23T03:35:36.825Z,10.35
2023-04-23T03:40:36.002Z,9.89
2023-04-23T03:45:32.278Z,10.02
2023-04-23T03:50:26.286Z,10.35
2023-04-23T03:55:33.518Z,10.22
2023-04-23T04:00:28.536Z,10.08
2023-04-23T04:05:21.883Z,9.81
2023-04-23T04:10:15.199Z,9.68
2023-04-23T04:15:10.420Z,9.76
2023-04-23T04:20:05.336Z,9.57
2023-04-23T04:24:59.364Z,9.80
2023-04-23T04:29:53.028Z,9.75
2023-04-23T04:34:47.137Z,9.50
2023-04-23T04:39:41.946Z,9.68
2023-04-23T04:44:37.584Z,9.89
2023-04-23T04:49:31.186Z,9.60
2023-04-23T04:54:24.366Z,10.00
2023-04-23T04:59:19.156Z,9.17
2023-04-23T05:04:12.798Z,9.61
2023-04-23T05:09:06.419Z,10.36
2023-04-23T05:13:59.925Z,10.77
2023-04-23T05:18:54.626Z,10.89
2023-04-23T05:23:48.650Z,9.86
2023-04-23T05:28:42.238Z,11.28
2023-04-23T05:33:46.358Z,11.94
2023-04-23T05:38:45.760Z,12.29
2023-04-23T05:43:39.061Z,12.51
2023-04-23T05:48:32.440Z,12.93
2023-04-23T05:53:26.980Z,13.02
2023-04-23T05:58:22.659Z,13.18
2023-04-23T06:03:16.838Z,13.41
2023-04-23T06:08:10.474Z,13.53
2023-04-23T06:13:03.916Z,13.85
2023-04-23T06:18:00.989Z,14.09
2023-04-23T06:22:54.472Z,14.01
2023-04-23T06:27:49.547Z,14.79
2023-04-23T06:32:47.772Z,14.98
2023-04-23T06:37:42.239Z,15.27
2023-04-23T06:42:35.476Z,15.43
2023-04-23T06:47:49.278Z,15.53
2023-04-23T06:52:44.385Z,15.80
2023-04-23T06:57:39.448Z,16.11
2023-04-23T07:02:33.028Z,16.40
2023-04-23T07:07:26.387Z,16.67
2023-04-23T07:12:21.391Z,16.58
2023-04-23T07:17:15.540Z,17.17
2023-04-23T07:22:08.684Z,17.37
2023-04-23T07:27:02.184Z,17.70
2023-04-23T07:31:56.812Z,17.94
2023-04-23T07:36:50.220Z,17.92
2023-04-23T07:41:43.566Z,18.24
2023-04-23T07:46:36.803Z,18.38
2023-04-23T07:51:31.965Z,18.04
2023-04-23T07:56:25.802Z,18.66
2023-04-23T08:01:21.860Z,18.82
2023-04-23T08:06:15.172Z,18.33
2023-04-23T08:11:11.164Z,19.25
2023-04-23T08:16:04.402Z,19.53
2023-04-23T08:20:57.699Z,19.91
2023-04-23T08:25:50.916Z,19.97
2023-04-23T08:30:45.586Z,21.34
2023-04-23T08:35:38.866Z,22.07
2023-04-23T08:40:34.220Z,23.25
2023-04-23T08:45:27.385Z,24.43
2023-04-23T08:50:22.004Z,25.12
2023-04-23T08:55:16.124Z,25.83
2023-04-23T09:00:11.767Z,26.27
2023-04-23T09:05:16.614Z,26.71
2023-04-23T09:10:15.460Z,27.04
2023-04-23T09:15:12.883Z,26.95
2023-04-23T09:20:11.000Z,26.87
2023-04-23T09:25:05.731Z,26.52
2023-04-23T09:30:05.283Z,26.04
2023-04-23T09:34:58.627Z,25.99
2023-04-23T09:39:54.762Z,25.69
2023-04-23T09:44:59.733Z,25.25
2023-04-23T09:49:53.174Z,24.81
2023-04-23T09:54:47.542Z,24.28
2023-04-23T10:04:41.995Z,23.83
2023-04-23T10:09:36.178Z,24.02
2023-04-23T10:14:30.960Z,24.10
2023-04-23T10:19:25.944Z,24.78
2023-04-23T10:24:22.171Z,24.93
2023-04-23T10:29:17.421Z,25.06
2023-04-23T10:34:12.113Z,24.37
2023-04-23T10:39:09.388Z,24.10
2023-04-23T10:44:05.050Z,24.25
2023-04-23T10:49:08.077Z,25.51
2023-04-23T10:54:01.347Z,26.29
2023-04-23T10:58:54.629Z,26.23
2023-04-23T11:03:49.354Z,27.31
2023-04-23T11:08:54.221Z,28.34
2023-04-23T11:13:55.209Z,28.50
2023-04-23T11:19:03.886Z,27.43
2023-04-23T11:23:59.116Z,26.49
2023-04-23T11:28:54.973Z,25.65
2023-04-23T11:33:48.176Z,24.88
2023-04-23T11:38:48.978Z,23.93
2023-04-23T11:43:43.780Z,23.18
2023-04-23T11:48:37.611Z,22.62
2023-04-23T11:53:30.682Z,22.33
2023-04-23T11:58:25.386Z,23.10
2023-04-23T12:03:18.665Z,25.08
2023-04-23T12:08:13.267Z,27.43
2023-04-23T12:13:06.507Z,29.18
2023-04-23T12:18:11.948Z,30.13
2023-04-23T12:23:06.609Z,30.14
2023-04-23T12:28:01.183Z,29.85
2023-04-23T12:33:01.394Z,28.21
2023-04-23T12:37:56.134Z,27.26
2023-04-23T12:42:51.461Z,26.27
2023-04-23T12:47:44.739Z,25.45
2023-04-23T12:52:40.611Z,24.80
2023-04-23T12:57:35.088Z,26.01
2023-04-23T13:02:28.351Z,26.80
2023-04-23T13:07:21.890Z,27.99
2023-04-23T13:12:15.024Z,29.17
2023-04-23T13:17:12.268Z,30.85
2023-04-23T13:22:07.620Z,31.73
2023-04-23T13:27:03.639Z,32.26
2023-04-23T13:31:57.389Z,31.99
2023-04-23T13:36:52.540Z,32.14
2023-04-23T13:41:49.482Z,31.52
2023-04-23T13:46:47.734Z,32.49
2023-04-23T13:51:45.051Z,32.10
2023-04-23T13:56:39.746Z,32.41
2023-04-23T14:01:33.373Z,32.05
2023-04-23T14:06:28.994Z,31.64
2023-04-23T14:11:24.638Z,31.31
2023-04-23T14:16:19.494Z,31.63
2023-04-23T14:21:14.934Z,31.86
2023-04-23T14:26:17.584Z,31.34
2023-04-23T14:31:10.827Z,30.86
2023-04-23T14:36:07.754Z,31.11
2023-04-23T14:41:01.597Z,30.86
2023-04-23T14:45:54.715Z,31.19
2023-04-23T14:50:48.106Z,30.96
2023-04-23T14:55:43.483Z,30.61
2023-04-23T15:00:36.866Z,29.28
2023-04-23T15:05:30.288Z,27.70
2023-04-23T15:10:23.644Z,26.33
2023-04-23T15:15:41.177Z,25.14
2023-04-23T15:20:39.295Z,24.08
2023-04-23T15:25:33.306Z,23.68
2023-04-23T15:30:28.525Z,23.37
2023-04-23T15:35:21.633Z,23.01
2023-04-23T15:40:14.861Z,22.73
2023-04-23T15:45:10.253Z,22.51
2023-04-23T15:50:05.426Z,22.31
2023-04-23T15:54:59.655Z,22.16
2023-04-23T15:59:56.746Z,21.65
2023-04-23T16:04:50.990Z,21.77
2023-04-23T16:09:45.666Z,21.33
2023-04-23T16:14:38.919Z,21.67
2023-04-23T16:19:32.076Z,20.96
2023-04-23T16:24:26.618Z,21.41
2023-04-23T16:29:22.483Z,21.28
2023-04-23T16:34:19.208Z,21.04
2023-04-23T16:39:12.440Z,21.04
2023-04-23T16:44:05.626Z,20.83
2023-04-23T16:49:00.366Z,20.74
2023-04-23T16:53:53.844Z,20.12
2023-04-23T16:58:47.436Z,20.14
2023-04-23T17:03:41.147Z,20.24
2023-04-23T17:08:38.512Z,20.05
2023-04-23T17:13:35.368Z,19.19
2023-04-23T17:18:28.528Z,19.55
2023-04-23T17:23:21.734Z,19.28
2023-04-23T17:28:18.440Z,19.32
2023-04-23T17:33:17.100Z,19.11
2023-04-23T17:38:11.262Z,19.05
2023-04-23T17:43:07.119Z,19.08
2023-04-23T17:48:03.177Z,18.95
2023-04-23T17:52:58.122Z,18.76
2023-04-23T17:57:52.026Z,18.49
2023-04-23T18:02:45.381Z,18.75
2023-04-23T18:07:41.173Z,18.65
2023-04-23T18:12:35.765Z,18.57
2023-04-23T18:17:29.168Z,18.32
2023-04-23T18:22:22.945Z,18.40
2023-04-23T18:27:20.620Z,18.28
2023-04-23T18:32:20.916Z,18.18
2023-04-23T18:37:37.952Z,17.41
2023-04-23T18:42:32.652Z,17.97
2023-04-23T18:47:32.260Z,16.85
2023-04-23T18:52:25.493Z,17.76
2023-04-23T18:57:18.801Z,17.59
2023-04-23T19:02:21.389Z,17.41
2023-04-23T19:07:18.147Z,16.98
2023-04-23T19:12:17.243Z,16.88
2023-04-23T19:17:13.061Z,17.20
2023-04-23T19:22:07.616Z,17.10
2023-04-23T19:27:01.218Z,16.46
2023-04-23T19:31:55.191Z,16.81
2023-04-23T19:36:48.626Z,16.58
2023-04-23T19:41:43.265Z,16.90
2023-04-23T19:46:36.484Z,16.37
2023-04-23T19:51:35.577Z,16.59
2023-04-23T19:56:28.910Z,16.14
2023-04-23T20:01:23.860Z,15.25
2023-04-23T20:06:17.219Z,16.43
2023-04-23T20:11:10.647Z,16.62
2023-04-23T20:16:04.210Z,16.56
2023-04-23T20:21:00.377Z,16.47
2023-04-23T20:25:53.665Z,16.38
2023-04-23T20:30:47.297Z,16.08
2023-04-23T20:35:41.993Z,16.13
2023-04-23T20:40:36.683Z,16.09
2023-04-23T20:45:29.899Z,16.00
2023-04-23T20:50:25.611Z,15.88
2023-04-23T20:55:19.114Z,15.29
2023-04-23T21:00:15.016Z,15.67
2023-04-23T21:05:09.235Z,15.41
2023-04-23T21:10:02.495Z,15.42
2023-04-23T21:14:56.507Z,15.10
2023-04-23T21:19:53.960Z,15.05
2023-04-23T21:24:47.551Z,15.14
2023-04-23T21:29:41.440Z,14.92
2023-04-23T21:34:34.856Z,14.50
2023-04-23T21:39:31.812Z,15.04
2023-04-23T21:44:25.244Z,14.67
2023-04-23T21:49:18.524Z,14.32
2023-04-23T21:54:17.483Z,15.04
2023-04-23T21:59:12.225Z,15.06
2023-04-23T22:04:05.765Z,15.05
2023-04-23T22:08:59.214Z,14.90
2023-04-23T22:13:55.942Z,14.49
2023-04-23T22:18:50.648Z,14.69
2023-04-23T22:23:43.840Z,14.38
2023-04-23T22:28:37.046Z,14.77
2023-04-23T22:33:30.213Z,14.72
2023-04-23T22:38:27.823Z,14.10
2023-04-23T22:43:23.264Z,14.60
2023-04-23T22:48:16.504Z,14.51
2023-04-23T22:53:09.812Z,14.42
2023-04-23T22:58:04.411Z,14.67
2023-04-23T23:02:57.716Z,14.47
2023-04-23T23:07:52.142Z,14.23
2023-04-23T23:12:47.701Z,14.35
2023-04-23T23:17:42.377Z,14.54
2023-04-23T23:22:35.829Z,14.27
2023-04-23T23:27:29.035Z,13.33
2023-04-23T23:32:22.969Z,14.41
2023-04-23T23:37:17.718Z,14.18
2023-04-23T23:42:11.397Z,14.18
2023-04-23T23:47:04.782Z,14.03
2023-04-23T23:51:58.757Z,13.94
2023-04-23T23:56:53.329Z,14.04
